createdAt,value
2018-03-27T00:01:09.168Z,6.10
2018-03-27T00:03:36.620Z,5.50
2018-03-27T00:06:04.047Z,5.90
2018-03-27T00:08:31.496Z,6.70
2018-03-27T00:10:58.941Z,6.00
2018-03-27T00:13:26.392Z,5.80
2018-03-27T00:15:53.840Z,5.90
2018-03-27T00:18:21.320Z,6.80
2018-03-27T00:20:48.748Z,5.80
2018-03-27T00:23:16.196Z,6.50
2018-03-27T00:25:43.631Z,6.60
2018-03-27T00:28:23.016Z,5.60
2018-03-27T00:31:02.989Z,6.60
2018-03-27T00:33:42.348Z,6.50
2018-03-27T00:36:21.628Z,6.60
2018-03-27T00:39:00.924Z,6.60
2018-03-27T00:41:58.136Z,6.40
2018-03-27T00:44:25.575Z,5.60
2018-03-27T00:46:53.012Z,6.70
2018-03-27T00:49:20.521Z,5.90
2018-03-27T00:51:47.965Z,5.60
2018-03-27T00:54:15.400Z,5.90
2018-03-27T00:56:42.839Z,5.90
2018-03-27T00:59:10.292Z,5.70
2018-03-27T01:01:37.748Z,6.60
2018-03-27T01:04:05.198Z,6.40
2018-03-27T01:06:32.641Z,5.70
2018-03-27T01:09:00.100Z,5.80
2018-03-27T01:11:27.620Z,6.40
2018-03-27T01:13:55.844Z,5.90
2018-03-27T01:16:23.276Z,6.10
2018-03-27T01:18:50.713Z,6.60
2018-03-27T01:21:18.931Z,5.80
2018-03-27T01:23:46.380Z,6.10
2018-03-27T01:26:13.808Z,5.70
2018-03-27T01:28:41.252Z,5.80
2018-03-27T01:31:09.448Z,6.70
2018-03-27T01:33:36.911Z,6.50
2018-03-27T01:36:04.355Z,6.20
2018-03-27T01:38:31.780Z,6.40
2018-03-27T01:40:59.240Z,5.50
2018-03-27T01:43:26.659Z,6.70
2018-03-27T01:45:54.109Z,5.60
2018-03-27T01:48:21.576Z,6.60
2018-03-27T01:50:49.027Z,6.40
2018-03-27T01:53:16.456Z,5.90
2018-03-27T01:55:44.000Z,5.70
2018-03-27T01:58:12.223Z,5.80
2018-03-27T02:00:39.651Z,5.70
2018-03-27T02:03:07.087Z,5.80
2018-03-27T02:05:35.283Z,6.80
2018-03-27T02:08:02.727Z,6.70
2018-03-27T02:10:30.183Z,6.80
2018-03-27T02:13:03.215Z,6.10
2018-03-27T02:15:36.288Z,5.70
2018-03-27T02:18:09.395Z,6.10
2018-03-27T02:20:42.444Z,6.00
2018-03-27T02:23:10.439Z,6.00
2018-03-27T02:25:37.896Z,6.60
2018-03-27T02:28:05.349Z,6.40
2018-03-27T02:30:32.772Z,6.30
2018-03-27T02:33:00.221Z,5.70
2018-03-27T02:35:27.652Z,5.70
2018-03-27T02:37:55.105Z,5.80
2018-03-27T02:40:22.567Z,6.30
2018-03-27T02:42:50.021Z,5.40
2018-03-27T02:45:17.482Z,5.50
2018-03-27T02:47:44.930Z,6.40
2018-03-27T02:50:12.378Z,6.60
2018-03-27T02:52:39.825Z,6.60
2018-03-27T02:55:07.257Z,5.60
2018-03-27T02:57:34.702Z,6.20
2018-03-27T03:00:02.912Z,5.40
2018-03-27T03:02:30.536Z,5.30
2018-03-27T03:04:57.977Z,5.60
2018-03-27T03:07:25.421Z,5.70
2018-03-27T03:09:52.849Z,6.80
2018-03-27T03:12:20.300Z,6.00
2018-03-27T03:14:47.727Z,6.60
2018-03-27T03:17:15.180Z,6.00
2018-03-27T03:19:43.383Z,6.10
2018-03-27T03:22:10.836Z,6.00
2018-03-27T03:24:38.272Z,6.60
2018-03-27T03:27:05.713Z,6.00
2018-03-27T03:29:33.149Z,7.00
2018-03-27T03:32:00.591Z,7.00
2018-03-27T03:34:28.036Z,6.90
2018-03-27T03:36:55.471Z,6.30
2018-03-27T03:39:22.922Z,6.40
2018-03-27T03:41:50.348Z,6.30
2018-03-27T03:44:18.560Z,7.10
2018-03-27T03:46:45.996Z,7.10
2018-03-27T03:49:13.440Z,6.60
2018-03-27T03:51:40.857Z,7.10
2018-03-27T03:54:08.308Z,6.80
2018-03-27T03:56:35.770Z,7.00
2018-03-27T03:59:03.219Z,7.00
2018-03-27T04:01:30.673Z,6.90
2018-03-27T04:03:58.107Z,6.20
2018-03-27T04:06:25.545Z,6.10
2018-03-27T04:08:53.783Z,6.10
2018-03-27T04:11:21.214Z,6.10
2018-03-27T04:13:48.643Z,6.50
2018-03-27T04:16:16.846Z,6.80
2018-03-27T04:18:44.291Z,6.70
2018-03-27T04:21:11.731Z,6.30
2018-03-27T04:23:39.175Z,6.00
2018-03-27T04:26:07.428Z,6.60
2018-03-27T04:28:34.863Z,6.60
2018-03-27T04:31:02.377Z,6.70
2018-03-27T04:33:30.587Z,6.00
2018-03-27T04:35:58.024Z,5.90
2018-03-27T04:38:25.467Z,6.00
2018-03-27T04:40:53.686Z,6.10
2018-03-27T04:43:21.096Z,6.00
2018-03-27T04:45:48.535Z,6.60
2018-03-27T04:48:15.974Z,6.80
2018-03-27T04:50:43.408Z,6.90
2018-03-27T04:53:10.858Z,6.90
2018-03-27T04:55:38.316Z,6.60
2018-03-27T04:58:05.749Z,6.90
2018-03-27T05:00:33.195Z,6.60
2018-03-27T05:03:00.644Z,6.60
2018-03-27T05:05:28.083Z,6.80
2018-03-27T05:07:55.520Z,5.70
2018-03-27T05:10:22.988Z,5.70
2018-03-27T05:12:50.427Z,6.80
2018-03-27T05:15:17.866Z,6.50
2018-03-27T05:17:45.307Z,5.70
2018-03-27T05:20:12.775Z,6.20
2018-03-27T05:22:40.209Z,6.10
2018-03-27T05:25:07.635Z,5.50
2018-03-27T05:27:35.091Z,5.90
2018-03-27T05:30:02.550Z,6.70
2018-03-27T05:32:29.993Z,6.90
2018-03-27T05:34:57.492Z,5.90
2018-03-27T05:37:25.703Z,6.60
2018-03-27T05:39:53.140Z,6.40
2018-03-27T05:42:20.600Z,5.90
2018-03-27T05:44:48.026Z,6.60
2018-03-27T05:47:15.491Z,5.80
2018-03-27T05:49:42.947Z,6.40
2018-03-27T05:52:10.371Z,5.00
2018-03-27T05:54:37.861Z,5.30
2018-03-27T05:57:06.156Z,5.40
2018-03-27T05:59:33.624Z,6.20
2018-03-27T06:02:01.093Z,5.60
2018-03-27T06:04:28.563Z,5.10
2018-03-27T06:06:55.986Z,5.90
2018-03-27T06:09:23.540Z,6.10
2018-03-27T06:11:50.967Z,5.30
2018-03-27T06:14:18.447Z,5.90
2018-03-27T06:16:45.886Z,6.00
2018-03-27T06:19:13.336Z,5.80
2018-03-27T06:21:40.786Z,5.40
2018-03-27T06:24:08.241Z,5.50
2018-03-27T06:26:35.676Z,6.60
2018-03-27T06:29:03.124Z,5.70
2018-03-27T06:31:30.557Z,4.70
2018-03-27T06:33:58.070Z,6.70
2018-03-27T06:36:25.504Z,6.80
2018-03-27T06:38:52.997Z,6.60
2018-03-27T06:41:20.430Z,6.50
2018-03-27T06:43:47.886Z,5.30
2018-03-27T06:46:15.328Z,6.20
2018-03-27T06:48:42.791Z,6.40
2018-03-27T06:51:10.244Z,6.10
2018-03-27T06:53:37.762Z,5.40
2018-03-27T06:56:05.213Z,4.60
2018-03-27T06:58:32.684Z,4.40
2018-03-27T07:01:00.960Z,4.40
2018-03-27T07:03:28.467Z,4.20
2018-03-27T07:05:55.914Z,5.10
2018-03-27T07:08:23.403Z,5.90
2018-03-27T07:10:54.753Z,5.90
2018-03-27T07:13:22.185Z,5.30
2018-03-27T07:15:49.657Z,3.90
2018-03-27T07:18:17.189Z,3.40
2018-03-27T07:20:44.717Z,5.70
2018-03-27T07:23:12.164Z,5.50
2018-03-27T07:25:39.850Z,3.20
2018-03-27T07:28:07.328Z,3.00
2018-03-27T07:30:34.845Z,5.60
2018-03-27T07:33:02.288Z,4.10
2018-03-27T07:35:29.752Z,4.00
2018-03-27T07:37:57.298Z,4.00
2018-03-27T07:40:25.045Z,4.30
2018-03-27T07:42:54.440Z,5.80
2018-03-27T07:45:22.595Z,5.80
2018-03-27T07:48:01.854Z,3.90
2018-03-27T07:50:29.408Z,4.30
2018-03-27T07:52:56.896Z,6.50
2018-03-27T07:55:26.428Z,4.80
2018-03-27T07:57:53.912Z,5.10
2018-03-27T08:00:21.368Z,5.50
2018-03-27T08:02:48.840Z,5.20
2018-03-27T08:05:16.324Z,5.40
2018-03-27T08:07:43.785Z,7.30
2018-03-27T08:10:11.300Z,7.30
2018-03-27T08:12:38.737Z,6.50
2018-03-27T08:15:06.205Z,7.60
2018-03-27T08:17:33.657Z,7.70
2018-03-27T08:20:01.108Z,8.00
2018-03-27T08:22:28.575Z,6.80
2018-03-27T08:24:56.117Z,8.00
2018-03-27T08:27:23.537Z,8.10
2018-03-27T08:29:51.024Z,7.20
2018-03-27T08:32:18.472Z,7.30
2018-03-27T08:34:45.913Z,8.00
2018-03-27T08:37:13.565Z,8.80
2018-03-27T08:39:41.007Z,8.80
2018-03-27T08:42:08.465Z,8.20
2018-03-27T08:44:35.913Z,9.20
2018-03-27T08:47:03.372Z,8.70
2018-03-27T08:49:30.839Z,8.90
2018-03-27T08:51:58.370Z,9.20
2018-03-27T08:54:25.827Z,9.10
2018-03-27T08:56:53.284Z,9.10
2018-03-27T08:59:20.730Z,8.50
2018-03-27T09:01:48.180Z,8.40
2018-03-27T09:04:15.624Z,8.30
2018-03-27T09:06:43.073Z,9.00
2018-03-27T09:09:11.285Z,9.20
2018-03-27T09:11:38.773Z,9.40
2018-03-27T09:14:06.375Z,9.20
2018-03-27T09:16:33.834Z,9.30
2018-03-27T09:19:01.287Z,9.80
2018-03-27T09:21:28.741Z,9.20
2018-03-27T09:23:56.185Z,9.40
2018-03-27T09:26:23.661Z,9.70
2018-03-27T09:28:51.848Z,9.30
2018-03-27T09:31:19.297Z,9.20
2018-03-27T09:33:47.520Z,9.20
2018-03-27T09:36:15.962Z,9.00
2018-03-27T09:38:43.467Z,9.20
2018-03-27T09:41:10.936Z,9.20
2018-03-27T09:43:38.385Z,9.40
2018-03-27T09:46:05.823Z,9.60
2018-03-27T09:48:33.288Z,9.90
2018-03-27T09:51:00.756Z,10.10
2018-03-27T09:53:28.212Z,10.10
2018-03-27T09:55:55.668Z,10.00
2018-03-27T09:58:23.206Z,10.10
2018-03-27T10:00:50.623Z,10.50
2018-03-27T10:03:18.058Z,10.10
2018-03-27T10:05:46.291Z,10.10
2018-03-27T10:08:13.753Z,10.10
2018-03-27T10:10:41.208Z,10.10
2018-03-27T10:13:08.666Z,10.00
2018-03-27T10:15:36.160Z,9.90
2018-03-27T10:18:03.584Z,9.90
2018-03-27T10:20:31.142Z,10.20
2018-03-27T10:22:58.604Z,10.20
2018-03-27T10:25:26.066Z,10.30
2018-03-27T10:27:53.531Z,10.10
2018-03-27T10:30:21.007Z,10.00
2018-03-27T10:32:49.220Z,10.30
2018-03-27T10:35:16.696Z,10.20
2018-03-27T10:37:44.176Z,10.60
2018-03-27T10:40:11.640Z,10.80
2018-03-27T10:42:39.152Z,11.10
2018-03-27T10:45:06.665Z,11.60
2018-03-27T10:47:34.146Z,12.10
2018-03-27T10:50:01.621Z,12.70
2018-03-27T10:52:29.055Z,12.90
2018-03-27T10:54:56.504Z,12.30
2018-03-27T10:57:23.983Z,12.50
2018-03-27T10:59:51.428Z,12.80
2018-03-27T11:02:18.900Z,13.70
2018-03-27T11:04:46.608Z,14.30
2018-03-27T11:07:14.069Z,14.50
2018-03-27T11:09:41.523Z,14.30
2018-03-27T11:12:08.961Z,13.80
2018-03-27T11:14:36.437Z,14.60
2018-03-27T11:17:03.889Z,14.90
2018-03-27T11:19:31.379Z,14.90
2018-03-27T11:21:58.824Z,15.00
2018-03-27T11:24:26.270Z,15.60
2018-03-27T11:26:53.701Z,16.10
2018-03-27T11:29:21.184Z,16.00
2018-03-27T11:31:48.623Z,14.70
2018-03-27T11:34:16.072Z,13.20
2018-03-27T11:36:43.544Z,13.90
2018-03-27T11:39:11.033Z,15.80
2018-03-27T11:41:38.461Z,18.00
2018-03-27T11:44:06.706Z,18.90
2018-03-27T11:46:34.164Z,19.90
2018-03-27T11:49:01.713Z,20.80
2018-03-27T11:51:29.207Z,20.90
2018-03-27T11:53:56.662Z,21.90
2018-03-27T11:56:24.117Z,21.70
2018-03-27T11:58:52.553Z,22.40
2018-03-27T12:01:20.872Z,26.70
2018-03-27T12:03:48.295Z,26.60
2018-03-27T12:06:15.748Z,26.70
2018-03-27T12:08:43.983Z,26.30
2018-03-27T12:11:11.623Z,26.30
2018-03-27T12:13:39.078Z,27.40
2018-03-27T12:16:06.512Z,28.00
2018-03-27T12:18:33.980Z,27.40
2018-03-27T12:21:01.413Z,24.00
2018-03-27T12:23:28.870Z,23.50
2018-03-27T12:25:56.323Z,23.00
2018-03-27T12:28:23.787Z,21.50
2018-03-27T12:30:51.228Z,22.90
2018-03-27T12:33:18.712Z,23.70
2018-03-27T12:35:46.164Z,24.30
2018-03-27T12:38:13.761Z,25.00
2018-03-27T12:40:41.269Z,26.70
2018-03-27T12:43:09.484Z,27.50
2018-03-27T12:45:37.035Z,27.50
2018-03-27T12:48:04.598Z,27.20
2018-03-27T12:50:33.677Z,28.00
2018-03-27T12:53:01.868Z,23.10
2018-03-27T12:55:29.328Z,23.00
2018-03-27T12:57:56.785Z,21.60
2018-03-27T13:00:24.212Z,21.00
2018-03-27T13:02:52.601Z,19.80
2018-03-27T13:05:20.106Z,18.40
2018-03-27T13:07:47.576Z,17.60
2018-03-27T13:10:15.090Z,17.30
2018-03-27T13:12:42.512Z,17.10
2018-03-27T13:15:10.728Z,16.20
2018-03-27T13:17:38.287Z,16.10
2018-03-27T13:20:05.696Z,15.80
2018-03-27T13:22:33.145Z,16.00
2018-03-27T13:25:00.587Z,16.50
2018-03-27T13:27:28.053Z,17.10
2018-03-27T13:29:55.634Z,17.70
2018-03-27T13:32:24.011Z,18.50
2018-03-27T13:34:51.457Z,18.50
2018-03-27T13:37:19.134Z,18.50
2018-03-27T13:39:46.633Z,18.40
2018-03-27T13:42:14.160Z,19.10
2018-03-27T13:44:42.402Z,21.60
2018-03-27T13:47:09.908Z,21.50
2018-03-27T13:49:37.384Z,23.50
2018-03-27T13:52:04.834Z,25.30
2018-03-27T13:54:32.299Z,26.80
2018-03-27T13:56:59.742Z,27.50
2018-03-27T13:59:27.403Z,26.80
2018-03-27T14:01:54.847Z,25.90
2018-03-27T14:04:22.276Z,24.50
2018-03-27T14:06:50.493Z,22.10
2018-03-27T14:09:17.926Z,22.00
2018-03-27T14:11:45.368Z,21.10
2018-03-27T14:14:12.832Z,20.00
2018-03-27T14:16:40.325Z,19.30
2018-03-27T14:19:07.784Z,17.40
2018-03-27T14:21:36.719Z,16.40
2018-03-27T14:24:05.766Z,15.50
2018-03-27T14:26:33.187Z,15.40
2018-03-27T14:29:00.627Z,15.40
2018-03-27T14:31:28.084Z,14.90
2018-03-27T14:33:55.521Z,14.80
2018-03-27T14:36:22.980Z,15.40
2018-03-27T14:38:50.429Z,14.60
2018-03-27T14:41:17.877Z,14.40
2018-03-27T14:43:45.943Z,14.80
2018-03-27T14:46:13.479Z,15.00
2018-03-27T14:48:41.259Z,16.40
2018-03-27T14:51:08.807Z,17.40
2018-03-27T14:53:36.307Z,17.30
2018-03-27T14:56:03.776Z,16.50
2018-03-27T14:58:31.276Z,17.00
2018-03-27T15:00:58.796Z,16.20
2018-03-27T15:03:26.551Z,16.10
2018-03-27T15:05:54.266Z,16.30
2018-03-27T15:08:21.761Z,16.20
2018-03-27T15:10:49.240Z,16.20
2018-03-27T15:13:17.555Z,16.10
2018-03-27T15:15:45.253Z,15.60
2018-03-27T15:18:12.873Z,14.60
2018-03-27T15:20:40.752Z,14.70
2018-03-27T15:23:08.345Z,14.70
2018-03-27T15:25:36.569Z,14.60
2018-03-27T15:28:04.931Z,14.30
2018-03-27T15:30:32.476Z,14.20
2018-03-27T15:32:59.924Z,14.20
2018-03-27T15:35:27.369Z,14.60
2018-03-27T15:37:54.871Z,15.00
2018-03-27T15:40:22.338Z,15.30
2018-03-27T15:42:49.806Z,15.40
2018-03-27T15:45:17.304Z,15.00
2018-03-27T15:47:44.769Z,14.40
2018-03-27T15:50:12.254Z,14.00
2018-03-27T15:52:39.678Z,13.70
2018-03-27T15:55:07.173Z,13.40
2018-03-27T15:57:34.695Z,13.00
2018-03-27T16:00:02.157Z,12.80
2018-03-27T16:02:29.652Z,12.30
2018-03-27T16:04:57.120Z,12.10
2018-03-27T16:07:24.604Z,11.90
2018-03-27T16:09:52.029Z,11.90
2018-03-27T16:12:19.587Z,12.00
2018-03-27T16:14:47.064Z,11.50
2018-03-27T16:17:14.565Z,11.40
2018-03-27T16:19:42.009Z,11.30
2018-03-27T16:22:09.468Z,11.10
2018-03-27T16:24:36.934Z,11.00
2018-03-27T16:27:04.403Z,11.10
2018-03-27T16:29:31.863Z,11.30
2018-03-27T16:31:59.378Z,11.40
2018-03-27T16:34:27.016Z,11.10
2018-03-27T16:36:54.449Z,11.00
2018-03-27T16:39:21.952Z,11.20
2018-03-27T16:41:49.405Z,11.20
2018-03-27T16:44:16.856Z,11.30
2018-03-27T16:46:44.349Z,11.20
2018-03-27T16:49:12.576Z,11.20
2018-03-27T16:51:40.068Z,11.10
2018-03-27T16:54:07.648Z,11.10
2018-03-27T16:56:35.099Z,11.30
2018-03-27T16:59:02.546Z,11.00
2018-03-27T17:01:29.983Z,11.00
2018-03-27T17:03:57.471Z,10.90
2018-03-27T17:06:24.932Z,10.50
2018-03-27T17:08:52.401Z,10.40
2018-03-27T17:11:19.845Z,10.50
2018-03-27T17:13:47.331Z,10.40
2018-03-27T17:16:14.826Z,10.50
2018-03-27T17:18:42.322Z,10.40
2018-03-27T17:21:09.785Z,10.40
2018-03-27T17:23:37.231Z,10.40
2018-03-27T17:26:04.696Z,10.30
2018-03-27T17:28:32.189Z,10.20
2018-03-27T17:30:59.654Z,9.80
2018-03-27T17:33:27.124Z,9.80
2018-03-27T17:35:54.587Z,9.80
2018-03-27T17:38:22.133Z,9.60
2018-03-27T17:40:49.604Z,9.60
2018-03-27T17:43:17.062Z,9.50
2018-03-27T17:45:44.514Z,9.40
2018-03-27T17:48:11.984Z,9.30
2018-03-27T17:50:39.433Z,9.30
2018-03-27T17:53:06.902Z,9.20
2018-03-27T17:55:34.329Z,9.10
2018-03-27T17:58:01.782Z,9.00
2018-03-27T18:00:29.239Z,9.00
2018-03-27T18:02:56.676Z,8.90
2018-03-27T18:05:24.104Z,8.80
2018-03-27T18:07:51.560Z,8.80
2018-03-27T18:10:19.004Z,8.80
2018-03-27T18:12:46.477Z,8.70
2018-03-27T18:15:13.928Z,8.80
2018-03-27T18:17:41.383Z,8.70
2018-03-27T18:20:08.839Z,8.60
2018-03-27T18:22:36.396Z,8.60
2018-03-27T18:25:03.852Z,8.60
2018-03-27T18:27:31.304Z,8.50
2018-03-27T18:29:58.756Z,8.60
2018-03-27T18:32:26.200Z,8.50
2018-03-27T18:34:53.675Z,8.50
2018-03-27T18:37:21.117Z,8.50
2018-03-27T18:39:48.560Z,8.50
2018-03-27T18:42:16.017Z,8.40
2018-03-27T18:44:43.468Z,8.30
2018-03-27T18:47:10.948Z,8.20
2018-03-27T18:49:38.382Z,8.20
2018-03-27T18:52:05.824Z,8.10
2018-03-27T18:54:33.254Z,8.00
2018-03-27T18:57:00.706Z,8.00
2018-03-27T18:59:28.172Z,7.90
2018-03-27T19:01:55.607Z,8.00
2018-03-27T19:04:23.049Z,7.80
2018-03-27T19:06:50.608Z,7.70
2018-03-27T19:09:18.066Z,7.70
2018-03-27T19:11:45.533Z,7.50
2018-03-27T19:14:13.728Z,7.60
2018-03-27T19:16:41.188Z,7.50
2018-03-27T19:19:08.617Z,7.40
2018-03-27T19:21:36.072Z,7.40
2018-03-27T19:24:03.541Z,7.50
2018-03-27T19:26:31.008Z,7.50
2018-03-27T19:28:58.599Z,7.40
2018-03-27T19:31:26.051Z,7.50
2018-03-27T19:33:53.500Z,7.30
2018-03-27T19:36:20.948Z,7.30
2018-03-27T19:38:48.415Z,7.20
2018-03-27T19:41:15.905Z,7.10
2018-03-27T19:43:43.296Z,7.00
2018-03-27T19:46:10.765Z,7.00
2018-03-27T19:48:38.238Z,7.10
2018-03-27T19:51:05.731Z,7.00
2018-03-27T19:53:33.168Z,7.00
2018-03-27T19:56:00.621Z,6.90
2018-03-27T19:58:28.071Z,6.90
2018-03-27T20:00:55.520Z,6.90
2018-03-27T20:03:22.976Z,6.80
2018-03-27T20:05:50.404Z,6.80
2018-03-27T20:08:17.872Z,6.90
2018-03-27T20:10:45.332Z,6.60
2018-03-27T20:13:12.827Z,6.80
2018-03-27T20:15:41.706Z,6.80
2018-03-27T20:18:07.724Z,6.60
2018-03-27T20:20:35.172Z,6.90
2018-03-27T20:23:02.636Z,6.90
2018-03-27T20:25:30.104Z,6.80
2018-03-27T20:27:57.556Z,6.80
2018-03-27T20:30:24.999Z,6.80
2018-03-27T20:32:52.460Z,6.70
2018-03-27T20:35:19.968Z,6.90
2018-03-27T20:37:47.399Z,6.90
2018-03-27T20:40:15.640Z,6.80
2018-03-27T20:42:43.106Z,6.80
2018-03-27T20:45:10.564Z,6.70
2018-03-27T20:47:37.997Z,6.80
2018-03-27T20:50:05.436Z,6.80
2018-03-27T20:52:32.889Z,6.90
2018-03-27T20:55:00.343Z,6.90
2018-03-27T20:57:27.791Z,6.90
2018-03-27T20:59:55.237Z,7.20
2018-03-27T21:02:22.707Z,7.10
2018-03-27T21:04:50.891Z,7.20
2018-03-27T21:07:18.363Z,7.20
2018-03-27T21:09:45.801Z,7.20
2018-03-27T21:12:13.260Z,7.30
2018-03-27T21:14:40.700Z,7.40
2018-03-27T21:17:08.144Z,7.40
2018-03-27T21:19:36.370Z,7.40
2018-03-27T21:22:03.824Z,7.30
2018-03-27T21:24:31.263Z,7.50
2018-03-27T21:26:58.700Z,7.60
2018-03-27T21:29:26.156Z,7.70
2018-03-27T21:31:53.584Z,7.80
2018-03-27T21:34:21.041Z,7.90
2018-03-27T21:36:48.488Z,7.90
2018-03-27T21:39:15.924Z,7.80
2018-03-27T21:41:43.450Z,7.90
2018-03-27T21:44:10.879Z,7.80
2018-03-27T21:46:38.341Z,7.90
2018-03-27T21:49:05.777Z,7.80
2018-03-27T21:51:33.239Z,7.80
2018-03-27T21:54:00.677Z,7.70
2018-03-27T21:56:28.120Z,7.60
2018-03-27T21:58:55.563Z,7.70
2018-03-27T22:01:23.003Z,7.60
2018-03-27T22:03:52.701Z,7.60
2018-03-27T22:06:25.972Z,7.50
2018-03-27T22:08:53.427Z,7.60
2018-03-27T22:11:20.900Z,7.70
2018-03-27T22:13:48.340Z,7.70
2018-03-27T22:16:15.775Z,7.70
2018-03-27T22:18:43.224Z,7.50
2018-03-27T22:21:10.667Z,7.60
2018-03-27T22:23:38.132Z,7.50
2018-03-27T22:26:05.648Z,7.30
2018-03-27T22:28:33.100Z,7.40
2018-03-27T22:31:00.556Z,7.60
2018-03-27T22:33:27.988Z,7.40
2018-03-27T22:35:55.428Z,7.50
2018-03-27T22:38:22.881Z,7.20
2018-03-27T22:40:50.341Z,7.60
2018-03-27T22:43:17.801Z,7.60
2018-03-27T22:45:45.288Z,7.40
2018-03-27T22:48:12.780Z,7.50
2018-03-27T22:50:40.253Z,7.10
2018-03-27T22:53:07.681Z,7.40
2018-03-27T22:55:35.128Z,7.10
2018-03-27T22:58:02.591Z,7.50
2018-03-27T23:00:30.018Z,7.20
2018-03-27T23:02:57.474Z,7.00
2018-03-27T23:05:24.913Z,7.40
2018-03-27T23:07:52.375Z,7.40
2018-03-27T23:10:19.879Z,6.80
2018-03-27T23:12:47.319Z,7.40
2018-03-27T23:15:14.780Z,6.70
2018-03-27T23:17:42.207Z,7.00
2018-03-27T23:20:09.667Z,7.30
2018-03-27T23:22:37.100Z,6.70
2018-03-27T23:25:04.551Z,7.00
2018-03-27T23:27:31.983Z,7.10
2018-03-27T23:30:00.208Z,6.40
2018-03-27T23:32:27.668Z,6.30
2018-03-27T23:34:55.124Z,6.40
2018-03-27T23:37:22.590Z,7.20
2018-03-27T23:39:50.032Z,6.20
2018-03-27T23:42:17.495Z,6.10
2018-03-27T23:44:44.963Z,7.20
2018-03-27T23:47:12.419Z,6.20
2018-03-27T23:49:39.875Z,7.20
2018-03-27T23:52:07.384Z,7.10
2018-03-27T23:54:34.767Z,7.20
2018-03-27T23:57:02.223Z,6.80
2018-03-27T23:59:29.666Z,7.20
